Time,TemperatureF,DewpointF,PressureIn,WindDirection,WindDirectionDegrees,WindSpeedMPH,WindSpeedGustMPH,Humidity,HourlyPrecipIn,Conditions,Clouds,dailyrainin,SoftwareType,DateUTC
2013-10-20 00:01:00,48.0,41.8,30.09,NNW,338,1.0,2.0,79,0.00,,,0.00,Wunderground v.1.13,2013-10-20 04:01:00,
2013-10-20 00:02:00,48.0,41.8,30.09,NNW,338,1.0,2.0,79,0.00,,,0.00,Wunderground v.1.13,2013-10-20 04:02:00,
2013-10-20 00:03:00,47.9,41.7,30.09,NNW,338,1.0,2.0,79,0.00,,,0.00,Wunderground v.1.13,2013-10-20 04:03:00,
2013-10-20 00:08:00,47.9,41.7,30.09,NNW,338,0.0,0.0,79,0.00,,,0.00,Wunderground v.1.13,2013-10-20 04:08:00,
2013-10-20 00:09:00,47.8,41.6,30.09,NNW,338,0.0,0.0,79,0.00,,,0.00,Wunderground v.1.13,2013-10-20 04:09:00,
2013-10-20 00:15:00,47.7,41.8,30.09,NNW,338,0.0,0.0,80,0.00,,,0.00,Wunderground v.1.13,2013-10-20 04:15:00,
2013-10-20 00:20:00,47.5,41.6,30.09,NNW,338,0.0,0.0,80,0.00,,,0.00,Wunderground v.1.13,2013-10-20 04:20:00,
2013-10-20 00:26:00,47.4,41.5,30.09,NNW,338,0.0,0.0,80,0.00,,,0.00,Wunderground v.1.13,2013-10-20 04:26:00,
2013-10-20 00:32:00,47.1,41.2,30.09,NNW,338,0.0,3.0,80,0.00,,,0.00,Wunderground v.1.13,2013-10-20 04:32:00,
2013-10-20 00:38:00,46.9,41.1,30.09,NNW,338,0.0,0.0,80,0.00,,,0.00,Wunderground v.1.13,2013-10-20 04:38:00,
2013-10-20 00:43:00,46.6,41.1,30.09,NNW,338,0.0,0.0,81,0.00,,,0.00,Wunderground v.1.13,2013-10-20 04:43:00,
2013-10-20 00:49:00,46.4,40.9,30.09,NNW,338,0.0,0.0,81,0.00,,,0.00,Wunderground v.1.13,2013-10-20 04:49:00,
2013-10-20 00:55:00,45.9,40.7,30.09,NNW,338,0.0,0.0,82,0.00,,,0.00,Wunderground v.1.13,2013-10-20 04:55:00,
2013-10-20 01:00:00,45.5,40.3,30.09,NNW,338,0.0,0.0,82,0.00,,,0.00,Wunderground v.1.13,2013-10-20 05:00:00,
2013-10-20 01:05:00,45.0,40.1,30.09,NNW,338,0.0,0.0,83,0.00,,,0.00,Wunderground v.1.13,2013-10-20 05:05:00,
2013-10-20 01:11:00,44.6,39.8,30.09,NNW,338,0.0,0.0,83,0.00,,,0.00,Wunderground v.1.13,2013-10-20 05:11:00,
2013-10-20 01:17:00,44.2,39.7,30.09,NNW,338,0.0,0.0,84,0.00,,,0.00,Wunderground v.1.13,2013-10-20 05:17:00,
2013-10-20 01:22:00,43.8,39.6,30.10,NNW,338,0.0,0.0,85,0.00,,,0.00,Wunderground v.1.13,2013-10-20 05:22:00,
2013-10-20 01:28:00,43.5,39.3,30.10,NNW,338,0.0,0.0,85,0.00,,,0.00,Wunderground v.1.13,2013-10-20 05:28:00,
2013-10-20 01:33:00,43.2,39.0,30.10,NNW,338,0.0,0.0,85,0.00,,,0.00,Wunderground v.1.13,2013-10-20 05:33:00,
2013-10-20 01:38:00,42.9,39.0,30.10,NNW,338,0.0,0.0,86,0.00,,,0.00,Wunderground v.1.13,2013-10-20 05:38:00,
2013-10-20 01:44:00,42.5,38.6,30.10,NNW,338,0.0,0.0,86,0.00,,,0.00,Wunderground v.1.13,2013-10-20 05:44:00,
2013-10-20 01:50:00,42.2,38.3,30.10,NNW,338,0.0,0.0,86,0.00,,,0.00,Wunderground v.1.13,2013-10-20 05:50:00,
2013-10-20 01:55:00,41.9,38.3,30.10,NNW,338,0.0,0.0,87,0.00,,,0.00,Wunderground v.1.13,2013-10-20 05:55:00,
2013-10-20 02:01:00,41.6,38.0,30.10,NNW,338,0.0,0.0,87,0.00,,,0.00,Wunderground v.1.13,2013-10-20 06:01:00,
2013-10-20 02:07:00,41.3,37.7,30.10,NNW,338,0.0,0.0,87,0.00,,,0.00,Wunderground v.1.13,2013-10-20 06:07:00,
2013-10-20 02:13:00,41.0,37.7,30.10,NNW,338,0.0,0.0,88,0.00,,,0.00,Wunderground v.1.13,2013-10-20 06:13:00,
2013-10-20 02:18:00,40.8,37.5,30.10,NNW,338,0.0,0.0,88,0.00,,,0.00,Wunderground v.1.13,2013-10-20 06:18:00,
2013-10-20 02:24:00,40.6,37.3,30.11,NNW,338,0.0,0.0,88,0.00,,,0.00,Wunderground v.1.13,2013-10-20 06:24:00,
2013-10-20 02:30:00,40.4,37.4,30.11,NNW,338,0.0,0.0,89,0.00,,,0.00,Wunderground v.1.13,2013-10-20 06:30:00,
2013-10-20 02:35:00,40.2,37.2,30.11,NNW,338,0.0,0.0,89,0.00,,,0.00,Wunderground v.1.13,2013-10-20 06:35:00,
2013-10-20 02:40:00,40.1,37.1,30.11,NNW,338,0.0,0.0,89,0.00,,,0.00,Wunderground v.1.13,2013-10-20 06:40:00,
2013-10-20 02:46:00,39.8,36.8,30.11,NNW,338,0.0,0.0,89,0.00,,,0.00,Wunderground v.1.13,2013-10-20 06:46:00,
2013-10-20 02:51:00,39.6,36.6,30.11,NNW,338,0.0,0.0,89,0.00,,,0.00,Wunderground v.1.13,2013-10-20 06:51:00,
2013-10-20 02:57:00,39.4,36.4,30.11,NNW,338,0.0,0.0,89,0.00,,,0.00,Wunderground v.1.13,2013-10-20 06:57:00,
2013-10-20 03:03:00,39.2,36.5,30.11,NNW,338,0.0,0.0,90,0.00,,,0.00,Wunderground v.1.13,2013-10-20 07:03:00,
2013-10-20 03:09:00,39.0,36.3,30.11,NNW,338,0.0,0.0,90,0.00,,,0.00,Wunderground v.1.13,2013-10-20 07:09:00,
2013-10-20 03:14:00,38.8,36.1,30.11,NNW,338,0.0,0.0,90,0.00,,,0.00,Wunderground v.1.13,2013-10-20 07:14:00,
2013-10-20 03:20:00,38.6,35.9,30.11,NNW,338,0.0,0.0,90,0.00,,,0.00,Wunderground v.1.13,2013-10-20 07:20:00,
2013-10-20 03:26:00,38.3,35.6,30.11,NNW,338,0.0,0.0,90,0.00,,,0.00,Wunderground v.1.13,2013-10-20 07:26:00,
2013-10-20 03:31:00,38.2,35.5,30.11,NNW,338,0.0,0.0,90,0.00,,,0.00,Wunderground v.1.13,2013-10-20 07:31:00,
2013-10-20 03:37:00,38.0,35.3,30.11,NNW,338,0.0,0.0,90,0.00,,,0.00,Wunderground v.1.13,2013-10-20 07:37:00,
2013-10-20 03:42:00,37.9,35.2,30.11,NNW,338,0.0,0.0,90,0.00,,,0.00,Wunderground v.1.13,2013-10-20 07:42:00,
2013-10-20 03:47:00,37.8,35.4,30.11,NNW,338,0.0,0.0,91,0.00,,,0.00,Wunderground v.1.13,2013-10-20 07:47:00,
2013-10-20 03:53:00,37.7,35.3,30.11,NNW,338,0.0,0.0,91,0.00,,,0.00,Wunderground v.1.13,2013-10-20 07:53:00,
2013-10-20 03:59:00,37.7,35.3,30.11,NNW,338,0.0,0.0,91,0.00,,,0.00,Wunderground v.1.13,2013-10-20 07:59:00,
2013-10-20 04:05:00,37.6,35.2,30.11,NNW,338,0.0,0.0,91,0.00,,,0.00,Wunderground v.1.13,2013-10-20 08:05:00,
2013-10-20 04:10:00,37.5,35.1,30.12,NNW,338,0.0,0.0,91,0.00,,,0.00,Wunderground v.1.13,2013-10-20 08:10:00,
2013-10-20 04:16:00,37.5,35.1,30.11,NNW,338,0.0,0.0,91,0.00,,,0.00,Wunderground v.1.13,2013-10-20 08:16:00,
2013-10-20 04:22:00,37.2,34.8,30.11,NNW,338,0.0,0.0,91,0.00,,,0.00,Wunderground v.1.13,2013-10-20 08:22:00,
2013-10-20 04:27:00,37.0,34.9,30.11,NNW,338,0.0,0.0,92,0.00,,,0.00,Wunderground v.1.13,2013-10-20 08:27:00,
2013-10-20 04:33:00,36.9,34.8,30.11,NNW,338,0.0,0.0,92,0.00,,,0.00,Wunderground v.1.13,2013-10-20 08:33:00,
2013-10-20 04:39:00,36.7,34.3,30.11,NNW,338,0.0,0.0,91,0.00,,,0.00,Wunderground v.1.13,2013-10-20 08:39:00,
2013-10-20 04:44:00,36.5,34.4,30.11,NNW,338,0.0,0.0,92,0.00,,,0.00,Wunderground v.1.13,2013-10-20 08:44:00,
2013-10-20 04:50:00,36.5,34.4,30.11,NNW,338,0.0,0.0,92,0.00,,,0.00,Wunderground v.1.13,2013-10-20 08:50:00,
2013-10-20 04:56:00,36.3,34.2,30.11,NNW,338,0.0,0.0,92,0.00,,,0.00,Wunderground v.1.13,2013-10-20 08:56:00,
2013-10-20 05:01:00,36.2,34.1,30.11,NNW,338,0.0,0.0,92,0.00,,,0.00,Wunderground v.1.13,2013-10-20 09:01:00,
2013-10-20 05:07:00,36.0,33.9,30.11,NNW,338,0.0,0.0,92,0.00,,,0.00,Wunderground v.1.13,2013-10-20 09:07:00,
2013-10-20 05:13:00,35.9,33.8,30.12,NNW,338,0.0,0.0,92,0.00,,,0.00,Wunderground v.1.13,2013-10-20 09:13:00,
2013-10-20 05:18:00,35.8,33.7,30.12,NNW,338,0.0,0.0,92,0.00,,,0.00,Wunderground v.1.13,2013-10-20 09:18:00,
2013-10-20 05:24:00,35.7,33.6,30.12,NNW,338,0.0,0.0,92,0.00,,,0.00,Wunderground v.1.13,2013-10-20 09:24:00,
2013-10-20 05:30:00,35.6,33.5,30.12,NNW,338,0.0,0.0,92,0.00,,,0.00,Wunderground v.1.13,2013-10-20 09:30:00,
2013-10-20 05:35:00,35.6,33.5,30.12,NNW,338,0.0,0.0,92,0.00,,,0.00,Wunderground v.1.13,2013-10-20 09:35:00,
2013-10-20 05:40:00,35.4,33.3,30.12,NNW,338,0.0,0.0,92,0.00,,,0.00,Wunderground v.1.13,2013-10-20 09:40:00,
2013-10-20 05:46:00,35.3,33.2,30.12,NNW,338,0.0,0.0,92,0.00,,,0.00,Wunderground v.1.13,2013-10-20 09:46:00,
2013-10-20 05:51:00,35.2,33.1,30.12,NNW,338,0.0,0.0,92,0.00,,,0.00,Wunderground v.1.13,2013-10-20 09:51:00,
2013-10-20 05:57:00,35.0,32.9,30.12,NNW,338,0.0,0.0,92,0.00,,,0.00,Wunderground v.1.13,2013-10-20 09:57:00,
2013-10-20 06:02:00,34.9,33.1,30.12,NNW,338,0.0,0.0,93,0.00,,,0.00,Wunderground v.1.13,2013-10-20 10:02:00,
2013-10-20 06:07:00,34.8,33.0,30.13,NNW,338,0.0,0.0,93,0.00,,,0.00,Wunderground v.1.13,2013-10-20 10:07:00,
2013-10-20 06:13:00,34.8,33.0,30.13,NNW,338,0.0,0.0,93,0.00,,,0.00,Wunderground v.1.13,2013-10-20 10:13:00,
2013-10-20 06:19:00,34.8,33.0,30.13,NNW,338,0.0,0.0,93,0.00,,,0.00,Wunderground v.1.13,2013-10-20 10:19:00,
2013-10-20 06:24:00,34.6,32.8,30.13,NNW,338,0.0,0.0,93,0.00,,,0.00,Wunderground v.1.13,2013-10-20 10:24:00,
2013-10-20 06:30:00,34.6,32.8,30.13,NNW,338,0.0,0.0,93,0.00,,,0.00,Wunderground v.1.13,2013-10-20 10:30:00,
2013-10-20 06:35:00,34.4,32.6,30.13,NNW,338,0.0,0.0,93,0.00,,,0.00,Wunderground v.1.13,2013-10-20 10:35:00,
2013-10-20 06:40:00,34.4,32.6,30.13,NNW,338,0.0,0.0,93,0.00,,,0.00,Wunderground v.1.13,2013-10-20 10:40:00,
2013-10-20 06:46:00,34.4,32.6,30.13,NNW,338,0.0,0.0,93,0.00,,,0.00,Wunderground v.1.13,2013-10-20 10:46:00,
2013-10-20 06:52:00,34.2,32.4,30.13,NNW,338,0.0,0.0,93,0.00,,,0.00,Wunderground v.1.13,2013-10-20 10:52:00,
2013-10-20 06:57:00,34.0,32.2,30.13,NNW,338,0.0,0.0,93,0.00,,,0.00,Wunderground v.1.13,2013-10-20 10:57:00,
2013-10-20 07:02:00,33.9,32.1,30.13,NNW,338,0.0,0.0,93,0.00,,,0.00,Wunderground v.1.13,2013-10-20 11:02:00,
2013-10-20 07:08:00,33.8,32.0,30.13,NNW,338,0.0,0.0,93,0.00,,,0.00,Wunderground v.1.13,2013-10-20 11:08:00,
2013-10-20 07:13:00,33.5,31.7,30.13,NNW,338,0.0,0.0,93,0.00,,,0.00,Wunderground v.1.13,2013-10-20 11:13:00,
2013-10-20 07:19:00,33.4,31.6,30.14,NNW,338,0.0,0.0,93,0.00,,,0.00,Wunderground v.1.13,2013-10-20 11:19:00,
2013-10-20 07:24:00,33.4,31.6,30.14,NNW,338,0.0,0.0,93,0.00,,,0.00,Wunderground v.1.13,2013-10-20 11:24:00,
2013-10-20 07:30:00,33.3,31.5,30.14,NNW,338,0.0,0.0,93,0.00,,,0.00,Wunderground v.1.13,2013-10-20 11:30:00,
2013-10-20 07:36:00,33.4,31.6,30.14,NNW,338,0.0,0.0,93,0.00,,,0.00,Wunderground v.1.13,2013-10-20 11:36:00,
2013-10-20 07:42:00,33.2,31.4,30.14,NNW,338,0.0,0.0,93,0.00,,,0.00,Wunderground v.1.13,2013-10-20 11:42:00,
2013-10-20 07:47:00,33.0,31.2,30.14,NNW,338,0.0,0.0,93,0.00,,,0.00,Wunderground v.1.13,2013-10-20 11:47:00,
2013-10-20 07:53:00,32.9,31.1,30.15,NNW,338,0.0,0.0,93,0.00,,,0.00,Wunderground v.1.13,2013-10-20 11:53:00,
2013-10-20 07:58:00,32.9,31.1,30.15,NNW,338,0.0,0.0,93,0.00,,,0.00,Wunderground v.1.13,2013-10-20 11:58:00,
2013-10-20 08:04:00,32.8,31.0,30.15,NNW,338,0.0,0.0,93,0.00,,,0.00,Wunderground v.1.13,2013-10-20 12:04:00,
2013-10-20 08:10:00,32.7,30.9,30.15,NNW,338,0.0,0.0,93,0.00,,,0.00,Wunderground v.1.13,2013-10-20 12:10:00,
2013-10-20 08:16:00,33.3,31.8,30.15,NNW,338,0.0,0.0,94,0.00,,,0.00,Wunderground v.1.13,2013-10-20 12:16:00,
2013-10-20 08:21:00,33.9,32.4,30.15,NNW,338,0.0,0.0,94,0.00,,,0.00,Wunderground v.1.13,2013-10-20 12:21:00,
2013-10-20 08:27:00,34.5,33.2,30.15,NNW,338,0.0,0.0,95,0.00,,,0.00,Wunderground v.1.13,2013-10-20 12:27:00,
2013-10-20 08:33:00,35.1,33.8,30.16,NNW,338,0.0,0.0,95,0.00,,,0.00,Wunderground v.1.13,2013-10-20 12:33:00,
2013-10-20 08:38:00,35.5,34.2,30.16,NNW,338,0.0,0.0,95,0.00,,,0.00,Wunderground v.1.13,2013-10-20 12:38:00,
2013-10-20 08:44:00,36.4,35.1,30.16,NNW,338,0.0,0.0,95,0.00,,,0.00,Wunderground v.1.13,2013-10-20 12:44:00,
2013-10-20 08:50:00,37.0,35.7,30.16,NNW,338,0.0,0.0,95,0.00,,,0.00,Wunderground v.1.13,2013-10-20 12:50:00,
2013-10-20 08:55:00,38.1,37.1,30.16,NNW,338,0.0,0.0,96,0.00,,,0.00,Wunderground v.1.13,2013-10-20 12:55:00,
2013-10-20 09:01:00,38.9,37.9,30.16,NNW,338,0.0,0.0,96,0.00,,,0.00,Wunderground v.1.13,2013-10-20 13:01:00,
2013-10-20 09:07:00,40.1,39.1,30.17,NNW,334,0.0,0.0,96,0.00,,,0.00,Wunderground v.1.13,2013-10-20 13:07:00,
2013-10-20 09:12:00,41.1,40.0,30.17,NE,55,0.0,0.0,96,0.00,,,0.00,Wunderground v.1.13,2013-10-20 13:12:00,
2013-10-20 09:18:00,42.1,41.0,30.17,NE,55,0.0,0.0,96,0.00,,,0.00,Wunderground v.1.13,2013-10-20 13:18:00,
2013-10-20 09:24:00,43.1,42.0,30.17,NE,55,0.0,0.0,96,0.00,,,0.00,Wunderground v.1.13,2013-10-20 13:24:00,
2013-10-20 09:29:00,43.9,42.6,30.17,NE,56,0.0,1.0,95,0.00,,,0.00,Wunderground v.1.13,2013-10-20 13:29:00,
2013-10-20 09:35:00,44.7,42.8,30.18,ESE,109,1.0,3.0,93,0.00,,,0.00,Wunderground v.1.13,2013-10-20 13:35:00,
2013-10-20 09:41:00,45.6,43.1,30.18,East,96,2.0,3.0,91,0.00,,,0.00,Wunderground v.1.13,2013-10-20 13:41:00,
2013-10-20 09:46:00,46.0,42.3,30.18,East,98,3.0,6.0,87,0.00,,,0.00,Wunderground v.1.13,2013-10-20 13:46:00,
2013-10-20 09:52:00,46.7,42.1,30.18,East,86,3.0,5.0,84,0.00,,,0.00,Wunderground v.1.13,2013-10-20 13:52:00,
2013-10-20 09:58:00,47.1,41.6,30.18,East,92,3.0,6.0,81,0.00,,,0.00,Wunderground v.1.13,2013-10-20 13:58:00,
2013-10-20 10:03:00,47.4,40.9,30.18,East,94,4.0,7.0,78,0.00,,,0.00,Wunderground v.1.13,2013-10-20 14:03:00,
2013-10-20 10:09:00,48.1,41.2,30.18,NE,55,3.0,4.0,77,0.00,,,0.00,Wunderground v.1.13,2013-10-20 14:09:00,
2013-10-20 10:15:00,48.7,41.5,30.18,ESE,103,1.0,1.0,76,0.00,,,0.00,Wunderground v.1.13,2013-10-20 14:15:00,
2013-10-20 10:20:00,49.4,41.8,30.18,ENE,65,1.0,3.0,75,0.00,,,0.00,Wunderground v.1.13,2013-10-20 14:20:00,
2013-10-20 10:26:00,49.6,41.3,30.18,NE,48,2.0,5.0,73,0.00,,,0.00,Wunderground v.1.13,2013-10-20 14:26:00,
2013-10-20 10:31:00,49.6,41.3,30.18,East,96,3.0,3.0,73,0.00,,,0.00,Wunderground v.1.13,2013-10-20 14:31:00,
2013-10-20 10:37:00,50.0,41.7,30.18,ENE,67,3.0,5.0,73,0.00,,,0.00,Wunderground v.1.13,2013-10-20 14:37:00,
2013-10-20 10:43:00,50.4,41.7,30.18,NE,52,2.0,5.0,72,0.00,,,0.00,Wunderground v.1.13,2013-10-20 14:43:00,
2013-10-20 10:49:00,50.7,41.6,30.18,NE,49,2.0,4.0,71,0.00,,,0.00,Wunderground v.1.13,2013-10-20 14:49:00,
2013-10-20 10:54:00,50.7,41.3,30.18,NE,40,2.0,4.0,70,0.00,,,0.00,Wunderground v.1.13,2013-10-20 14:54:00,
2013-10-20 11:00:00,50.9,41.1,30.18,NE,40,2.0,2.0,69,0.00,,,0.00,Wunderground v.1.13,2013-10-20 15:00:00,
2013-10-20 11:06:00,51.9,41.7,30.18,ENE,61,1.0,2.0,68,0.00,,,0.00,Wunderground v.1.13,2013-10-20 15:06:00,
2013-10-20 11:11:00,52.4,41.8,30.18,ENE,63,1.0,1.0,67,0.00,,,0.00,Wunderground v.1.13,2013-10-20 15:11:00,
2013-10-20 11:17:00,52.7,41.7,30.18,ENE,63,0.0,1.0,66,0.00,,,0.00,Wunderground v.1.13,2013-10-20 15:17:00,
2013-10-20 11:23:00,53.3,41.8,30.18,NE,39,1.0,5.0,65,0.00,,,0.00,Wunderground v.1.13,2013-10-20 15:23:00,
2013-10-20 11:28:00,53.2,41.7,30.18,NE,40,2.0,3.0,65,0.00,,,0.00,Wunderground v.1.13,2013-10-20 15:28:00,
2013-10-20 11:33:00,53.3,41.4,30.18,NE,40,1.0,3.0,64,0.00,,,0.00,Wunderground v.1.13,2013-10-20 15:33:00,
2013-10-20 11:39:00,53.2,40.9,30.17,NE,42,1.0,3.0,63,0.00,,,0.00,Wunderground v.1.13,2013-10-20 15:39:00,
2013-10-20 11:44:00,53.9,42.4,30.17,NE,40,1.0,1.0,65,0.00,,,0.00,Wunderground v.1.13,2013-10-20 15:44:00,
2013-10-20 11:50:00,54.7,42.3,30.17,NW,318,1.0,3.0,63,0.00,,,0.00,Wunderground v.1.13,2013-10-20 15:50:00,
2013-10-20 11:55:00,55.4,42.6,30.17,NW,323,1.0,2.0,62,0.00,,,0.00,Wunderground v.1.13,2013-10-20 15:55:00,
2013-10-20 12:01:00,55.5,42.3,30.17,North,360,1.0,2.0,61,0.00,,,0.00,Wunderground v.1.13,2013-10-20 16:01:00,
2013-10-20 12:07:00,55.5,42.3,30.17,NE,55,2.0,4.0,61,0.00,,,0.00,Wunderground v.1.13,2013-10-20 16:07:00,
2013-10-20 12:13:00,55.5,42.3,30.17,ENE,65,1.0,2.0,61,0.00,,,0.00,Wunderground v.1.13,2013-10-20 16:13:00,
2013-10-20 12:18:00,55.8,41.7,30.17,North,9,1.0,3.0,59,0.00,,,0.00,Wunderground v.1.13,2013-10-20 16:18:00,
2013-10-20 12:24:00,56.0,41.4,30.17,North,5,2.0,2.0,58,0.00,,,0.00,Wunderground v.1.13,2013-10-20 16:24:00,
2013-10-20 12:30:00,56.6,42.4,30.17,North,355,2.0,3.0,59,0.00,,,0.00,Wunderground v.1.13,2013-10-20 16:30:00,
2013-10-20 12:35:00,56.8,42.6,30.17,East,82,2.0,4.0,59,0.00,,,0.00,Wunderground v.1.13,2013-10-20 16:35:00,
2013-10-20 12:38:00,56.9,42.3,30.17,East,93,2.0,5.0,58,0.00,,,0.00,Wunderground v.1.13,2013-10-20 16:38:00,
2013-10-20 12:44:00,57.2,42.5,30.17,East,92,1.0,3.0,58,0.00,,,0.00,Wunderground v.1.13,2013-10-20 16:44:00,
2013-10-20 12:49:00,57.9,42.8,30.16,NNE,12,1.0,1.0,57,0.00,,,0.00,Wunderground v.1.13,2013-10-20 16:49:00,
2013-10-20 12:55:00,58.0,41.9,30.16,East,89,1.0,1.0,55,0.00,,,0.00,Wunderground v.1.13,2013-10-20 16:55:00,
2013-10-20 13:00:00,58.1,42.5,30.16,East,89,0.0,0.0,56,0.00,,,0.00,Wunderground v.1.13,2013-10-20 17:00:00,
2013-10-20 13:05:00,58.8,42.2,30.16,SE,136,0.0,0.0,54,0.00,,,0.00,Wunderground v.1.13,2013-10-20 17:05:00,
2013-10-20 13:11:00,59.6,42.4,30.16,ENE,73,1.0,4.0,53,0.00,,,0.00,Wunderground v.1.13,2013-10-20 17:11:00,
2013-10-20 13:17:00,59.1,42.5,30.15,NE,50,3.0,5.0,54,0.00,,,0.00,Wunderground v.1.13,2013-10-20 17:17:00,
2013-10-20 13:23:00,58.9,42.8,30.15,NE,53,4.0,8.0,55,0.00,,,0.00,Wunderground v.1.13,2013-10-20 17:23:00,
2013-10-20 13:28:00,58.5,42.4,30.15,East,93,3.0,4.0,55,0.00,,,0.00,Wunderground v.1.13,2013-10-20 17:28:00,
2013-10-20 13:33:00,58.7,42.1,30.15,ENE,63,2.0,4.0,54,0.00,,,0.00,Wunderground v.1.13,2013-10-20 17:33:00,
2013-10-20 13:39:00,59.0,43.8,30.14,NNW,343,2.0,5.0,57,0.00,,,0.00,Wunderground v.1.13,2013-10-20 17:39:00,
2013-10-20 13:44:00,59.0,43.8,30.14,NNW,328,4.0,10.0,57,0.00,,,0.00,Wunderground v.1.13,2013-10-20 17:44:00,
2013-10-20 13:50:00,59.1,44.3,30.14,NW,321,4.0,7.0,58,0.00,,,0.00,Wunderground v.1.13,2013-10-20 17:50:00,
2013-10-20 13:56:00,59.5,44.7,30.14,WNW,296,4.0,4.0,58,0.00,,,0.00,Wunderground v.1.13,2013-10-20 17:56:00,
2013-10-20 14:02:00,59.8,44.5,30.13,WNW,302,5.0,10.0,57,0.00,,,0.00,Wunderground v.1.13,2013-10-20 18:02:00,
2013-10-20 14:07:00,59.9,45.1,30.13,NNW,329,7.0,7.0,58,0.00,,,0.00,Wunderground v.1.13,2013-10-20 18:07:00,
2013-10-20 14:13:00,59.9,44.2,30.13,NW,314,5.0,6.0,56,0.00,,,0.00,Wunderground v.1.13,2013-10-20 18:13:00,
2013-10-20 14:19:00,60.1,43.9,30.13,NNE,25,3.0,7.0,55,0.00,,,0.00,Wunderground v.1.13,2013-10-20 18:19:00,
2013-10-20 14:24:00,60.3,44.1,30.13,NE,37,2.0,10.0,55,0.00,,,0.00,Wunderground v.1.13,2013-10-20 18:24:00,
2013-10-20 14:30:00,59.9,43.7,30.13,NNE,20,3.0,3.0,55,0.00,,,0.00,Wunderground v.1.13,2013-10-20 18:30:00,
2013-10-20 14:36:00,59.8,43.6,30.12,NNE,26,2.0,3.0,55,0.00,,,0.00,Wunderground v.1.13,2013-10-20 18:36:00,
2013-10-20 14:42:00,59.8,44.1,30.12,NNE,13,2.0,3.0,56,0.00,,,0.00,Wunderground v.1.13,2013-10-20 18:42:00,
2013-10-20 14:47:00,60.2,44.0,30.12,NNW,348,2.0,4.0,55,0.00,,,0.00,Wunderground v.1.13,2013-10-20 18:47:00,
2013-10-20 14:53:00,60.1,43.4,30.12,NNE,25,2.0,4.0,54,0.00,,,0.00,Wunderground v.1.13,2013-10-20 18:53:00,
2013-10-20 14:58:00,60.9,44.6,30.12,NE,38,2.0,6.0,55,0.00,,,0.00,Wunderground v.1.13,2013-10-20 18:58:00,
2013-10-20 15:04:00,61.0,43.7,30.11,North,355,2.0,5.0,53,0.00,,,0.00,Wunderground v.1.13,2013-10-20 19:04:00,
2013-10-20 15:10:00,61.6,44.3,30.11,NNW,337,2.0,3.0,53,0.00,,,0.00,Wunderground v.1.13,2013-10-20 19:10:00,
2013-10-20 15:15:00,61.6,43.8,30.11,NNW,345,3.0,3.0,52,0.00,,,0.00,Wunderground v.1.13,2013-10-20 19:15:00,
2013-10-20 15:21:00,61.6,43.3,30.11,NNW,330,4.0,6.0,51,0.00,,,0.00,Wunderground v.1.13,2013-10-20 19:21:00,
2013-10-20 15:26:00,61.6,43.3,30.11,North,360,3.0,3.0,51,0.00,,,0.00,Wunderground v.1.13,2013-10-20 19:26:00,
2013-10-20 15:32:00,61.2,42.9,30.11,North,5,3.0,6.0,51,0.00,,,0.00,Wunderground v.1.13,2013-10-20 19:32:00,
2013-10-20 15:38:00,60.9,42.6,30.11,NNE,21,3.0,4.0,51,0.00,,,0.00,Wunderground v.1.13,2013-10-20 19:38:00,
2013-10-20 15:44:00,61.1,42.8,30.11,NNW,338,1.0,2.0,51,0.00,,,0.00,Wunderground v.1.13,2013-10-20 19:44:00,
2013-10-20 15:49:00,61.4,42.1,30.11,NW,319,2.0,4.0,49,0.00,,,0.00,Wunderground v.1.13,2013-10-20 19:49:00,
2013-10-20 15:55:00,61.9,43.0,30.11,NNW,330,3.0,3.0,50,0.00,,,0.00,Wunderground v.1.13,2013-10-20 19:55:00,
2013-10-20 16:00:00,62.0,43.1,30.11,NNW,344,3.0,4.0,50,0.00,,,0.00,Wunderground v.1.13,2013-10-20 20:00:00,
2013-10-20 16:05:00,61.8,42.4,30.11,NE,53,3.0,3.0,49,0.00,,,0.00,Wunderground v.1.13,2013-10-20 20:05:00,
2013-10-20 16:11:00,61.7,42.3,30.11,NW,325,2.0,4.0,49,0.00,,,0.00,Wunderground v.1.13,2013-10-20 20:11:00,
2013-10-20 16:17:00,61.6,41.7,30.11,NNE,27,4.0,4.0,48,0.00,,,0.00,Wunderground v.1.13,2013-10-20 20:17:00,
2013-10-20 16:22:00,61.8,42.4,30.11,North,5,2.0,3.0,49,0.00,,,0.00,Wunderground v.1.13,2013-10-20 20:22:00,
2013-10-20 16:28:00,61.9,41.4,30.11,NNW,338,2.0,2.0,47,0.00,,,0.00,Wunderground v.1.13,2013-10-20 20:28:00,
2013-10-20 16:33:00,62.3,42.3,30.11,ENE,71,2.0,3.0,48,0.00,,,0.00,Wunderground v.1.13,2013-10-20 20:33:00,
2013-10-20 16:38:00,62.3,40.7,30.11,NE,38,2.0,6.0,45,0.00,,,0.00,Wunderground v.1.13,2013-10-20 20:38:00,
2013-10-20 16:44:00,61.8,40.2,30.11,NE,49,3.0,5.0,45,0.00,,,0.00,Wunderground v.1.13,2013-10-20 20:44:00,
2013-10-20 16:50:00,61.8,40.2,30.10,North,355,1.0,1.0,45,0.00,,,0.00,Wunderground v.1.13,2013-10-20 20:50:00,
2013-10-20 16:55:00,61.8,39.6,30.10,North,355,1.0,2.0,44,0.00,,,0.00,Wunderground v.1.13,2013-10-20 20:55:00,
2013-10-20 17:01:00,61.9,39.1,30.10,North,360,1.0,2.0,43,0.00,,,0.00,Wunderground v.1.13,2013-10-20 21:01:00,
2013-10-20 17:06:00,62.0,39.2,30.10,North,360,0.0,1.0,43,0.00,,,0.00,Wunderground v.1.13,2013-10-20 21:06:00,
2013-10-20 17:12:00,62.1,38.7,30.10,North,360,1.0,3.0,42,0.00,,,0.00,Wunderground v.1.13,2013-10-20 21:12:00,
2013-10-20 17:17:00,62.3,39.5,30.10,North,360,1.0,2.0,43,0.00,,,0.00,Wunderground v.1.13,2013-10-20 21:17:00,
2013-10-20 17:23:00,62.5,39.1,30.10,North,360,1.0,2.0,42,0.00,,,0.00,Wunderground v.1.13,2013-10-20 21:23:00,
2013-10-20 17:29:00,62.6,38.6,30.10,North,360,1.0,3.0,41,0.00,,,0.00,Wunderground v.1.13,2013-10-20 21:29:00,
2013-10-20 17:35:00,62.2,38.2,30.10,North,360,1.0,2.0,41,0.00,,,0.00,Wunderground v.1.13,2013-10-20 21:35:00,
2013-10-20 17:40:00,62.1,38.1,30.10,NNE,20,0.0,0.0,41,0.00,,,0.00,Wunderground v.1.13,2013-10-20 21:40:00,
2013-10-20 17:46:00,61.9,37.3,30.10,NNE,22,1.0,1.0,40,0.00,,,0.00,Wunderground v.1.13,2013-10-20 21:46:00,
2013-10-20 17:52:00,61.7,37.1,30.10,NNE,22,0.0,0.0,40,0.00,,,0.00,Wunderground v.1.13,2013-10-20 21:52:00,
2013-10-20 17:57:00,61.6,36.4,30.10,NNE,22,0.0,0.0,39,0.00,,,0.00,Wunderground v.1.13,2013-10-20 21:57:00,
2013-10-20 18:03:00,61.6,36.4,30.10,NNE,22,0.0,0.0,39,0.00,,,0.00,Wunderground v.1.13,2013-10-20 22:03:00,
2013-10-20 18:09:00,61.6,36.4,30.10,NNE,22,0.0,0.0,39,0.00,,,0.00,Wunderground v.1.13,2013-10-20 22:09:00,
2013-10-20 18:15:00,61.5,43.2,30.10,NNE,22,0.0,0.0,51,0.00,,,0.00,Wunderground v.1.13,2013-10-20 22:15:00,
2013-10-20 18:20:00,61.1,43.8,30.11,NNE,22,0.0,0.0,53,0.00,,,0.00,Wunderground v.1.13,2013-10-20 22:20:00,
2013-10-20 18:26:00,60.8,44.0,30.11,NNE,22,0.0,0.0,54,0.00,,,0.00,Wunderground v.1.13,2013-10-20 22:26:00,
2013-10-20 18:32:00,60.3,44.5,30.11,NNE,22,0.0,0.0,56,0.00,,,0.00,Wunderground v.1.13,2013-10-20 22:32:00,
2013-10-20 18:38:00,59.1,44.8,30.11,NNE,22,0.0,0.0,59,0.00,,,0.00,Wunderground v.1.13,2013-10-20 22:38:00,
2013-10-20 18:43:00,58.2,44.4,30.11,NNE,22,0.0,0.0,60,0.00,,,0.00,Wunderground v.1.13,2013-10-20 22:43:00,
2013-10-20 18:49:00,56.8,44.3,30.11,NNE,22,0.0,0.0,63,0.00,,,0.00,Wunderground v.1.13,2013-10-20 22:49:00,
2013-10-20 18:55:00,55.5,43.5,30.11,NNE,22,0.0,0.0,64,0.00,,,0.00,Wunderground v.1.13,2013-10-20 22:55:00,
2013-10-20 19:00:00,54.6,43.1,30.11,NNE,22,0.0,0.0,65,0.00,,,0.00,Wunderground v.1.13,2013-10-20 23:00:00,
2013-10-20 19:06:00,53.5,42.0,30.11,NNE,22,0.0,0.0,65,0.00,,,0.00,Wunderground v.1.13,2013-10-20 23:06:00,
2013-10-20 19:12:00,52.2,42.0,30.11,NNE,22,0.0,0.0,68,0.00,,,0.00,Wunderground v.1.13,2013-10-20 23:12:00,
2013-10-20 19:18:00,50.9,41.5,30.11,NNE,22,0.0,0.0,70,0.00,,,0.00,Wunderground v.1.13,2013-10-20 23:18:00,
2013-10-20 19:23:00,50.1,40.7,30.11,NNE,22,0.0,0.0,70,0.00,,,0.00,Wunderground v.1.13,2013-10-20 23:23:00,
2013-10-20 19:29:00,49.2,40.2,30.11,NNE,22,0.0,0.0,71,0.00,,,0.00,Wunderground v.1.13,2013-10-20 23:29:00,
2013-10-20 19:35:00,48.8,40.2,30.11,NNE,22,0.0,0.0,72,0.00,,,0.00,Wunderground v.1.13,2013-10-20 23:35:00,
2013-10-20 19:41:00,48.2,39.9,30.12,NNE,22,0.0,0.0,73,0.00,,,0.00,Wunderground v.1.13,2013-10-20 23:41:00,
2013-10-20 19:46:00,47.8,39.9,30.12,NNE,22,0.0,0.0,74,0.00,,,0.00,Wunderground v.1.13,2013-10-20 23:46:00,
2013-10-20 19:52:00,47.4,39.5,30.12,NNE,22,0.0,0.0,74,0.00,,,0.00,Wunderground v.1.13,2013-10-20 23:52:00,
2013-10-20 19:57:00,46.8,39.3,30.12,NNE,22,0.0,0.0,75,0.00,,,0.00,Wunderground v.1.13,2013-10-20 23:57:00,
2013-10-20 20:03:00,46.2,39.7,30.12,NNE,22,0.0,0.0,78,0.00,,,0.00,Wunderground v.1.13,2013-10-21 00:03:00,
2013-10-20 20:09:00,45.7,39.2,30.12,NNE,22,0.0,0.0,78,0.00,,,0.00,Wunderground v.1.13,2013-10-21 00:09:00,
2013-10-20 20:15:00,45.1,39.0,30.13,NNE,22,0.0,0.0,79,0.00,,,0.00,Wunderground v.1.13,2013-10-21 00:15:00,
2013-10-20 20:20:00,44.8,39.0,30.13,NNE,22,0.0,0.0,80,0.00,,,0.00,Wunderground v.1.13,2013-10-21 00:20:00,
2013-10-20 20:26:00,44.5,39.0,30.13,NNE,22,0.0,0.0,81,0.00,,,0.00,Wunderground v.1.13,2013-10-21 00:26:00,
2013-10-20 20:31:00,44.1,38.6,30.13,NNE,22,0.0,0.0,81,0.00,,,0.00,Wunderground v.1.13,2013-10-21 00:31:00,
2013-10-20 20:37:00,43.8,38.7,30.13,NNE,22,0.0,0.0,82,0.00,,,0.00,Wunderground v.1.13,2013-10-21 00:37:00,
2013-10-20 20:43:00,43.6,38.8,30.13,NNE,22,0.0,0.0,83,0.00,,,0.00,Wunderground v.1.13,2013-10-21 00:43:00,
2013-10-20 20:49:00,43.3,38.5,30.13,NNE,22,0.0,0.0,83,0.00,,,0.00,Wunderground v.1.13,2013-10-21 00:49:00,
2013-10-20 20:54:00,43.1,38.3,30.13,NNE,22,0.0,0.0,83,0.00,,,0.00,Wunderground v.1.13,2013-10-21 00:54:00,
2013-10-20 21:00:00,42.8,38.3,30.13,NNE,22,0.0,0.0,84,0.00,,,0.00,Wunderground v.1.13,2013-10-21 01:00:00,
2013-10-20 21:05:00,42.6,38.4,30.13,NNE,22,0.0,0.0,85,0.00,,,0.00,Wunderground v.1.13,2013-10-21 01:05:00,
2013-10-20 21:11:00,42.5,38.0,30.14,NNE,22,0.0,0.0,84,0.00,,,0.00,Wunderground v.1.13,2013-10-21 01:11:00,
2013-10-20 21:16:00,42.3,38.1,30.13,NNE,22,0.0,0.0,85,0.00,,,0.00,Wunderground v.1.13,2013-10-21 01:16:00,
2013-10-20 21:22:00,42.0,37.8,30.13,NNE,22,0.0,0.0,85,0.00,,,0.00,Wunderground v.1.13,2013-10-21 01:22:00,
2013-10-20 21:28:00,41.9,37.7,30.13,NNE,22,0.0,0.0,85,0.00,,,0.00,Wunderground v.1.13,2013-10-21 01:28:00,
2013-10-20 21:34:00,41.6,37.4,30.13,NNE,22,0.0,0.0,85,0.00,,,0.00,Wunderground v.1.13,2013-10-21 01:34:00,
2013-10-20 21:40:00,41.3,37.1,30.13,NNE,22,0.0,0.0,85,0.00,,,0.00,Wunderground v.1.13,2013-10-21 01:40:00,
2013-10-20 21:46:00,41.1,37.2,30.13,NNE,22,0.0,0.0,86,0.00,,,0.00,Wunderground v.1.13,2013-10-21 01:46:00,
2013-10-20 21:52:00,41.0,37.1,30.13,NNE,22,0.0,0.0,86,0.00,,,0.00,Wunderground v.1.13,2013-10-21 01:52:00,
2013-10-20 21:57:00,40.9,37.0,30.14,NNE,22,0.0,0.0,86,0.00,,,0.00,Wunderground v.1.13,2013-10-21 01:57:00,
2013-10-20 22:02:00,40.7,36.8,30.14,NNE,22,0.0,0.0,86,0.00,,,0.00,Wunderground v.1.13,2013-10-21 02:02:00,
2013-10-20 22:08:00,40.5,36.6,30.14,NNE,22,0.0,0.0,86,0.00,,,0.00,Wunderground v.1.13,2013-10-21 02:08:00,
2013-10-20 22:13:00,40.3,36.4,30.14,NNE,22,0.0,0.0,86,0.00,,,0.00,Wunderground v.1.13,2013-10-21 02:13:00,
2013-10-20 22:19:00,40.1,36.5,30.14,NNE,22,0.0,0.0,87,0.00,,,0.00,Wunderground v.1.13,2013-10-21 02:19:00,
2013-10-20 22:25:00,39.8,36.2,30.14,NNE,22,0.0,0.0,87,0.00,,,0.00,Wunderground v.1.13,2013-10-21 02:25:00,
2013-10-20 22:30:00,39.7,36.1,30.14,NNE,22,0.0,0.0,87,0.00,,,0.00,Wunderground v.1.13,2013-10-21 02:30:00,
2013-10-20 22:36:00,39.6,36.3,30.14,NNE,22,0.0,0.0,88,0.00,,,0.00,Wunderground v.1.13,2013-10-21 02:36:00,
2013-10-20 22:42:00,39.5,36.2,30.14,NNE,22,0.0,0.0,88,0.00,,,0.00,Wunderground v.1.13,2013-10-21 02:42:00,
2013-10-20 22:48:00,39.4,36.1,30.14,NNE,22,0.0,0.0,88,0.00,,,0.00,Wunderground v.1.13,2013-10-21 02:48:00,
2013-10-20 22:53:00,39.3,36.0,30.14,NNE,22,0.0,0.0,88,0.00,,,0.00,Wunderground v.1.13,2013-10-21 02:53:00,
2013-10-20 22:59:00,39.2,35.9,30.14,NNE,22,0.0,0.0,88,0.00,,,0.00,Wunderground v.1.13,2013-10-21 02:59:00,
2013-10-20 23:04:00,39.2,36.2,30.14,NNE,22,0.0,0.0,89,0.00,,,0.00,Wunderground v.1.13,2013-10-21 03:04:00,
2013-10-20 23:09:00,39.1,36.1,30.14,NNE,22,0.0,0.0,89,0.00,,,0.00,Wunderground v.1.13,2013-10-21 03:09:00,
2013-10-20 23:15:00,39.0,36.0,30.14,NNE,22,0.0,0.0,89,0.00,,,0.00,Wunderground v.1.13,2013-10-21 03:15:00,
2013-10-20 23:21:00,38.7,35.7,30.14,NNE,22,0.0,0.0,89,0.00,,,0.00,Wunderground v.1.13,2013-10-21 03:21:00,
2013-10-20 23:26:00,38.6,35.6,30.14,NNE,22,0.0,0.0,89,0.00,,,0.00,Wunderground v.1.13,2013-10-21 03:26:00,
2013-10-20 23:32:00,38.4,35.4,30.14,NNE,22,0.0,0.0,89,0.00,,,0.00,Wunderground v.1.13,2013-10-21 03:32:00,
2013-10-20 23:38:00,38.3,35.6,30.14,NNE,22,0.0,0.0,90,0.00,,,0.00,Wunderground v.1.13,2013-10-21 03:38:00,
2013-10-20 23:44:00,38.2,35.5,30.14,NNE,22,0.0,0.0,90,0.00,,,0.00,Wunderground v.1.13,2013-10-21 03:44:00,
2013-10-20 23:49:00,38.0,35.0,30.14,NNE,22,0.0,0.0,89,0.00,,,0.00,Wunderground v.1.13,2013-10-21 03:49:00,
2013-10-20 23:55:00,37.8,35.1,30.14,NNE,22,0.0,0.0,90,0.00,,,0.00,Wunderground v.1.13,2013-10-21 03:55:00,